createdAt,value
2019-05-14T00:01:11.858Z,99.90
2019-05-14T00:03:41.422Z,99.90
2019-05-14T00:06:11.536Z,99.90
2019-05-14T00:08:41.800Z,99.90
2019-05-14T00:11:13.055Z,99.90
2019-05-14T00:13:42.847Z,99.90
2019-05-14T00:16:11.963Z,99.90
2019-05-14T00:18:41.997Z,99.90
2019-05-14T00:21:12.323Z,99.90
2019-05-14T00:23:42.218Z,99.90
2019-05-14T00:26:12.148Z,99.90
2019-05-14T00:28:42.229Z,99.90
2019-05-14T00:31:12.115Z,99.90
2019-05-14T00:33:42.088Z,99.90
2019-05-14T00:36:11.323Z,99.90
2019-05-14T00:38:42.005Z,99.90
2019-05-14T00:41:11.252Z,99.90
2019-05-14T00:43:41.572Z,99.90
2019-05-14T00:46:11.808Z,99.90
2019-05-14T00:48:42.272Z,99.90
2019-05-14T00:51:12.144Z,99.90
2019-05-14T00:53:42.093Z,99.90
2019-05-14T00:56:12.403Z,99.90
2019-05-14T00:58:41.735Z,99.90
2019-05-14T01:01:11.897Z,99.90
2019-05-14T01:03:41.507Z,99.90
2019-05-14T01:06:11.483Z,99.90
2019-05-14T01:08:41.326Z,99.90
2019-05-14T01:11:11.851Z,99.90
2019-05-14T01:13:41.823Z,99.90
2019-05-14T01:16:11.992Z,99.90
2019-05-14T01:18:41.515Z,99.90
2019-05-14T01:21:11.651Z,99.90
2019-05-14T01:23:41.635Z,99.90
2019-05-14T01:26:11.552Z,99.90
2019-05-14T01:28:41.689Z,99.90
2019-05-14T01:31:11.378Z,99.90
2019-05-14T01:33:41.327Z,99.90
2019-05-14T01:36:12.209Z,99.90
2019-05-14T01:38:41.837Z,99.90
2019-05-14T01:41:11.854Z,99.90
2019-05-14T01:43:41.982Z,99.90
2019-05-14T01:46:12.145Z,99.90
2019-05-14T01:48:41.924Z,99.90
2019-05-14T01:51:11.996Z,99.90
2019-05-14T01:53:41.776Z,99.90
2019-05-14T01:56:11.986Z,99.90
2019-05-14T01:58:41.959Z,99.90
2019-05-14T02:01:12.033Z,99.90
2019-05-14T02:03:41.363Z,99.90
2019-05-14T02:06:11.855Z,99.90
2019-05-14T02:08:41.469Z,99.90
2019-05-14T02:11:12.071Z,99.90
2019-05-14T02:13:42.192Z,99.90
2019-05-14T02:16:13.025Z,99.90
2019-05-14T02:18:41.955Z,99.90
2019-05-14T02:21:11.782Z,99.90
2019-05-14T02:23:42.058Z,99.90
2019-05-14T02:26:11.531Z,99.90
2019-05-14T02:28:42.045Z,99.90
2019-05-14T02:31:11.421Z,99.90
2019-05-14T02:33:41.012Z,99.90
2019-05-14T02:36:10.584Z,99.90
2019-05-14T02:38:39.906Z,99.90
2019-05-14T02:41:10.013Z,99.90
2019-05-14T02:43:40.825Z,99.90
2019-05-14T02:46:16.607Z,99.90
2019-05-14T02:48:41.085Z,99.90
2019-05-14T02:51:10.737Z,99.90
2019-05-14T02:53:40.135Z,99.90
2019-05-14T02:56:10.576Z,99.90
2019-05-14T02:58:40.470Z,99.90
2019-05-14T03:01:09.751Z,99.90
2019-05-14T03:03:40.259Z,99.90
2019-05-14T03:06:09.730Z,99.90
2019-05-14T03:08:39.349Z,99.90
2019-05-14T03:11:09.694Z,99.90
2019-05-14T03:13:40.270Z,99.90
2019-05-14T03:16:22.198Z,99.90
2019-05-14T03:18:40.486Z,99.90
2019-05-14T03:21:09.835Z,99.90
2019-05-14T03:23:39.512Z,99.90
2019-05-14T03:26:09.625Z,99.90
2019-05-14T03:28:40.007Z,99.90
2019-05-14T03:31:12.597Z,99.90
2019-05-14T03:33:43.836Z,99.90
2019-05-14T03:36:17.753Z,99.90
2019-05-14T03:38:42.978Z,99.90
2019-05-14T03:41:14.284Z,99.90
2019-05-14T03:43:43.672Z,99.90
2019-05-14T03:46:13.874Z,99.90
2019-05-14T03:48:43.249Z,99.90
2019-05-14T03:51:12.316Z,99.90
2019-05-14T03:53:55.417Z,99.90
2019-05-14T03:56:12.322Z,99.90
2019-05-14T03:58:41.288Z,99.90
2019-05-14T04:01:10.989Z,99.90
2019-05-14T04:03:40.531Z,99.90
2019-05-14T04:06:11.363Z,99.90
2019-05-14T04:08:42.801Z,99.90
2019-05-14T04:11:14.176Z,99.90
2019-05-14T04:13:49.444Z,99.90
2019-05-14T04:16:20.149Z,99.90
2019-05-14T04:18:50.686Z,99.90
2019-05-14T04:21:21.997Z,99.90
2019-05-14T04:23:51.463Z,99.90
2019-05-14T04:26:24.309Z,99.90
2019-05-14T04:28:55.262Z,99.90
2019-05-14T04:31:24.180Z,99.90
2019-05-14T04:34:13.708Z,99.90
2019-05-14T04:36:43.304Z,99.90
2019-05-14T04:39:12.355Z,99.90
2019-05-14T04:41:41.348Z,99.90
2019-05-14T04:44:10.861Z,99.90
2019-05-14T04:46:40.475Z,99.90
2019-05-14T04:49:09.984Z,99.90
2019-05-14T04:51:39.862Z,99.90
2019-05-14T04:54:09.749Z,99.90
2019-05-14T04:56:40.168Z,99.90
2019-05-14T04:59:10.578Z,99.90
2019-05-14T05:01:40.492Z,99.90
2019-05-14T05:04:09.984Z,99.90
2019-05-14T05:06:39.920Z,99.90
2019-05-14T05:09:09.834Z,99.90
2019-05-14T05:11:40.209Z,99.90
2019-05-14T05:14:09.664Z,99.90
2019-05-14T05:16:39.345Z,99.90
2019-05-14T05:19:10.494Z,99.90
2019-05-14T05:21:40.023Z,99.90
2019-05-14T05:24:09.735Z,99.90
2019-05-14T05:26:39.359Z,99.90
2019-05-14T05:29:10.534Z,99.90
2019-05-14T05:31:39.672Z,99.90
2019-05-14T05:34:09.071Z,99.90
2019-05-14T05:36:38.687Z,99.90
2019-05-14T05:39:08.712Z,99.90
2019-05-14T05:41:38.470Z,99.90
2019-05-14T05:44:08.251Z,99.90
2019-05-14T05:46:38.832Z,99.90
2019-05-14T05:49:08.649Z,99.90
2019-05-14T05:51:39.257Z,99.90
2019-05-14T05:54:09.335Z,99.90
2019-05-14T05:56:38.951Z,99.90
2019-05-14T05:59:09.505Z,99.90
2019-05-14T06:01:45.253Z,99.90
2019-05-14T06:04:10.115Z,99.90
2019-05-14T06:06:59.007Z,99.90
2019-05-14T06:09:29.163Z,99.90
2019-05-14T06:11:59.283Z,99.90
2019-05-14T06:14:29.265Z,99.90
2019-05-14T06:16:59.259Z,99.90
2019-05-14T06:19:28.972Z,99.90
2019-05-14T06:21:59.772Z,99.90
2019-05-14T06:24:29.369Z,99.90
2019-05-14T06:26:58.810Z,99.90
2019-05-14T06:29:29.029Z,99.90
2019-05-14T06:31:58.815Z,99.90
2019-05-14T06:34:29.163Z,99.90
2019-05-14T06:36:59.221Z,99.90
2019-05-14T06:39:28.639Z,99.90
2019-05-14T06:41:58.531Z,99.90
2019-05-14T06:44:29.504Z,99.90
2019-05-14T06:46:59.090Z,99.90
2019-05-14T06:49:29.175Z,99.90
2019-05-14T06:51:59.450Z,99.90
2019-05-14T06:54:29.255Z,99.90
2019-05-14T06:56:59.231Z,99.90
2019-05-14T06:59:29.031Z,99.90
2019-05-14T07:01:59.096Z,99.90
2019-05-14T07:04:28.830Z,99.90
2019-05-14T07:06:59.121Z,99.90
2019-05-14T07:09:29.098Z,99.90
2019-05-14T07:11:58.619Z,99.90
2019-05-14T07:14:28.383Z,99.90
2019-05-14T07:16:58.773Z,99.90
2019-05-14T07:19:29.434Z,99.90
2019-05-14T07:21:58.964Z,99.90
2019-05-14T07:24:28.514Z,99.90
2019-05-14T07:26:58.561Z,99.90
2019-05-14T07:29:29.345Z,99.90
2019-05-14T07:31:59.112Z,99.90
2019-05-14T07:34:28.504Z,99.90
2019-05-14T07:36:58.725Z,99.90
2019-05-14T07:39:29.104Z,99.90
2019-05-14T07:41:59.358Z,99.90
2019-05-14T07:44:29.676Z,99.90
2019-05-14T07:47:21.535Z,99.90
2019-05-14T07:49:50.724Z,99.90
2019-05-14T07:55:15.679Z,99.90
2019-05-14T07:57:45.407Z,99.90
2019-05-14T08:00:15.143Z,99.90
2019-05-14T08:02:44.133Z,99.90
2019-05-14T08:05:14.170Z,99.90
2019-05-14T08:07:43.913Z,99.90
2019-05-14T08:10:13.318Z,99.90
2019-05-14T08:12:42.564Z,99.90
2019-05-14T08:15:18.265Z,99.90
2019-05-14T08:17:43.106Z,99.90
2019-05-14T08:20:12.940Z,99.90
2019-05-14T08:22:42.890Z,99.90
2019-05-14T08:25:12.563Z,99.90
2019-05-14T08:27:41.751Z,99.90
2019-05-14T08:30:11.311Z,99.90
2019-05-14T08:32:40.569Z,99.90
2019-05-14T08:35:10.307Z,99.90
2019-05-14T08:37:40.215Z,99.90
2019-05-14T08:40:10.895Z,99.90
2019-05-14T08:42:39.947Z,99.90
2019-05-14T08:45:13.636Z,99.90
2019-05-14T08:47:48.194Z,99.90
2019-05-14T08:50:21.083Z,99.90
2019-05-14T08:52:50.267Z,99.90
2019-05-14T08:55:19.663Z,99.90
2019-05-14T08:57:48.934Z,99.90
2019-05-14T09:00:19.137Z,99.90
2019-05-14T09:02:48.786Z,99.90
2019-05-14T09:05:18.388Z,99.90
2019-05-14T09:07:49.142Z,99.90
2019-05-14T09:10:21.123Z,99.90
2019-05-14T09:12:50.275Z,99.90
2019-05-14T09:15:19.259Z,99.90
2019-05-14T09:17:48.820Z,99.90
2019-05-14T09:20:18.938Z,99.90
2019-05-14T09:22:49.031Z,99.90
2019-05-14T09:25:19.073Z,99.90
2019-05-14T09:27:49.359Z,99.90
2019-05-14T09:30:18.941Z,99.90
2019-05-14T09:32:49.273Z,99.90
2019-05-14T09:35:18.962Z,99.90
2019-05-14T09:37:51.287Z,99.90
2019-05-14T09:40:19.953Z,99.90
2019-05-14T09:42:50.176Z,99.90
2019-05-14T09:45:19.871Z,99.90
2019-05-14T09:47:50.701Z,99.90
2019-05-14T09:50:23.359Z,99.90
2019-05-14T09:52:54.429Z,99.90
2019-05-14T09:55:23.976Z,99.90
2019-05-14T09:57:53.219Z,99.90
2019-05-14T10:00:22.894Z,99.90
2019-05-14T10:02:53.139Z,99.90
2019-05-14T10:05:22.357Z,99.90
2019-05-14T10:07:51.500Z,99.90
2019-05-14T10:10:20.896Z,99.90
2019-05-14T10:12:56.377Z,99.90
2019-05-14T10:15:21.544Z,99.90
2019-05-14T10:17:51.429Z,99.90
2019-05-14T10:20:36.510Z,99.90
2019-05-14T10:22:51.863Z,99.90
2019-05-14T10:25:21.472Z,99.90
2019-05-14T10:27:50.675Z,99.90
2019-05-14T10:30:20.196Z,99.90
2019-05-14T10:32:52.709Z,99.90
2019-05-14T10:35:22.268Z,99.90
2019-05-14T10:37:54.541Z,99.90
2019-05-14T10:40:23.825Z,99.90
2019-05-14T10:42:54.496Z,99.90
2019-05-14T10:45:23.563Z,99.90
2019-05-14T10:47:53.164Z,99.90
2019-05-14T10:50:22.319Z,99.90
2019-05-14T10:52:51.479Z,99.90
2019-05-14T10:55:20.511Z,99.90
2019-05-14T10:57:54.357Z,99.90
2019-05-14T11:00:28.391Z,99.90
2019-05-14T11:02:57.977Z,99.90
2019-05-14T11:05:28.186Z,99.90
2019-05-14T11:07:58.708Z,99.90
2019-05-14T11:10:29.804Z,99.90
2019-05-14T11:12:59.868Z,99.90
2019-05-14T11:15:29.037Z,99.90
2019-05-14T11:17:58.316Z,99.90
2019-05-14T11:20:31.222Z,99.90
2019-05-14T11:22:58.603Z,99.90
2019-05-14T11:25:28.796Z,99.90
2019-05-14T11:27:58.629Z,99.90
2019-05-14T11:30:28.781Z,99.90
2019-05-14T11:32:58.563Z,99.90
2019-05-14T11:35:28.830Z,99.90
2019-05-14T11:38:25.922Z,99.90
2019-05-14T11:40:38.726Z,99.90
2019-05-14T11:43:10.237Z,99.90
2019-05-14T11:45:39.542Z,99.90
2019-05-14T11:48:12.971Z,99.40
2019-05-14T11:50:42.479Z,99.90
2019-05-14T11:53:11.651Z,99.90
2019-05-14T11:55:40.966Z,99.70
2019-05-14T11:58:10.287Z,99.90
2019-05-14T12:00:39.532Z,99.90
2019-05-14T12:03:09.329Z,97.20
2019-05-14T12:05:38.954Z,99.40
2019-05-14T12:08:08.723Z,99.90
2019-05-14T12:10:38.723Z,99.90
2019-05-14T12:13:08.750Z,99.80
2019-05-14T12:15:38.846Z,98.80
2019-05-14T12:18:10.424Z,98.80
2019-05-14T12:20:39.683Z,98.50
2019-05-14T12:23:09.137Z,97.80
2019-05-14T12:25:38.288Z,96.40
2019-05-14T12:28:13.197Z,99.30
2019-05-14T12:30:39.599Z,97.50
2019-05-14T12:33:09.624Z,98.60
2019-05-14T12:35:51.262Z,98.40
2019-05-14T12:38:20.050Z,98.60
2019-05-14T12:40:49.738Z,98.60
2019-05-14T12:43:18.910Z,98.50
2019-05-14T12:45:48.441Z,97.40
2019-05-14T12:48:18.841Z,97.50
2019-05-14T12:50:49.035Z,96.50
2019-05-14T12:53:19.880Z,97.20
2019-05-14T12:55:49.180Z,98.10
2019-05-14T12:58:20.287Z,97.60
2019-05-14T13:00:49.695Z,97.10
2019-05-14T13:03:19.193Z,97.10
2019-05-14T13:05:49.277Z,96.70
2019-05-14T13:08:18.556Z,97.10
2019-05-14T13:10:49.191Z,97.80
2019-05-14T13:13:19.909Z,96.80
2019-05-14T13:15:48.978Z,96.20
2019-05-14T13:18:19.344Z,97.30
2019-05-14T13:20:49.222Z,98.10
2019-05-14T13:23:18.556Z,96.50
2019-05-14T13:25:47.951Z,98.00
2019-05-14T13:28:19.398Z,98.90
2019-05-14T13:30:48.991Z,97.00
2019-05-14T13:33:19.248Z,96.60
2019-05-14T13:35:49.215Z,96.90
2019-05-14T13:38:18.500Z,97.20
2019-05-14T13:40:49.129Z,95.60
2019-05-14T13:43:19.285Z,96.30
2019-05-14T13:45:49.388Z,95.20
2019-05-14T13:48:19.137Z,97.00
2019-05-14T13:50:49.223Z,97.20
2019-05-14T13:53:19.183Z,96.30
2019-05-14T13:55:57.174Z,95.10
2019-05-14T13:58:20.912Z,94.90
2019-05-14T14:00:52.209Z,94.20
2019-05-14T14:03:21.858Z,93.90
2019-05-14T14:05:50.657Z,93.40
2019-05-14T14:08:19.559Z,96.10
2019-05-14T14:10:53.681Z,93.90
2019-05-14T14:13:20.025Z,95.00
2019-05-14T14:15:50.128Z,94.30
2019-05-14T14:18:21.038Z,95.00
2019-05-14T14:20:50.205Z,95.80
2019-05-14T14:23:26.909Z,95.80
2019-05-14T14:25:54.753Z,94.60
2019-05-14T14:28:21.961Z,96.40
2019-05-14T14:30:51.075Z,95.00
2019-05-14T14:33:20.800Z,94.10
2019-05-14T14:35:49.636Z,93.40
2019-05-14T14:38:20.122Z,95.80
2019-05-14T14:40:49.522Z,95.70
2019-05-14T14:43:19.037Z,95.20
2019-05-14T14:45:50.975Z,94.30
2019-05-14T14:48:20.657Z,94.90
2019-05-14T14:50:50.225Z,93.30
2019-05-14T14:53:20.086Z,94.20
2019-05-14T14:55:50.879Z,94.30
2019-05-14T14:58:20.359Z,95.10
2019-05-14T15:00:49.296Z,94.90
2019-05-14T15:03:21.266Z,94.60
2019-05-14T15:05:49.968Z,92.30
2019-05-14T15:08:20.046Z,93.10
2019-05-14T15:10:49.942Z,94.20
2019-05-14T15:13:19.766Z,93.10
2019-05-14T15:15:49.643Z,94.00
2019-05-14T15:18:19.068Z,94.30
2019-05-14T15:20:48.867Z,93.30
2019-05-14T15:23:19.461Z,94.50
2019-05-14T15:25:48.474Z,95.00
2019-05-14T15:28:18.884Z,94.70
2019-05-14T15:30:49.930Z,95.00
2019-05-14T15:33:19.692Z,95.70
2019-05-14T15:35:49.300Z,95.90
2019-05-14T15:38:18.531Z,96.90
2019-05-14T15:40:48.793Z,97.10
2019-05-14T15:43:18.884Z,96.80
2019-05-14T15:45:48.684Z,96.30
2019-05-14T15:48:19.929Z,95.30
2019-05-14T15:50:50.200Z,95.10
2019-05-14T15:53:19.697Z,95.30
2019-05-14T15:55:49.179Z,93.60
2019-05-14T15:58:21.243Z,94.80
2019-05-14T16:00:50.264Z,94.20
2019-05-14T16:03:19.243Z,94.10
2019-05-14T16:05:48.941Z,94.00
2019-05-14T16:08:22.559Z,95.20
2019-05-14T16:10:49.565Z,98.10
2019-05-14T16:13:21.156Z,97.40
2019-05-14T16:15:49.528Z,97.20
2019-05-14T16:18:22.139Z,97.60
2019-05-14T16:20:50.108Z,97.50
2019-05-14T16:23:19.716Z,97.50
2019-05-14T16:25:48.839Z,98.40
2019-05-14T16:28:19.607Z,97.60
2019-05-14T16:30:49.528Z,97.50
2019-05-14T16:33:19.114Z,97.20
2019-05-14T16:35:48.629Z,97.90
2019-05-14T16:38:17.606Z,98.60
2019-05-14T16:40:48.938Z,98.50
2019-05-14T16:43:19.131Z,97.10
2019-05-14T16:45:49.162Z,97.20
2019-05-14T16:48:18.678Z,97.70
2019-05-14T16:50:48.988Z,98.20
2019-05-14T16:53:19.539Z,97.70
2019-05-14T16:55:48.967Z,97.60
2019-05-14T16:58:19.782Z,98.50
2019-05-14T17:00:48.885Z,98.70
2019-05-14T17:03:19.361Z,98.60
2019-05-14T17:05:48.889Z,98.70
2019-05-14T17:08:19.182Z,99.50
2019-05-14T17:10:48.816Z,98.70
2019-05-14T17:13:18.311Z,99.30
2019-05-14T17:15:48.137Z,98.50
2019-05-14T17:18:19.244Z,97.90
2019-05-14T17:20:48.907Z,98.20
2019-05-14T17:23:23.871Z,98.90
2019-05-14T17:25:54.848Z,98.60
2019-05-14T17:28:24.249Z,98.70
2019-05-14T17:30:53.660Z,98.10
2019-05-14T17:33:22.745Z,98.50
2019-05-14T17:35:51.732Z,98.90
2019-05-14T17:38:21.591Z,98.40
2019-05-14T17:40:50.749Z,98.40
2019-05-14T17:43:23.185Z,99.10
2019-05-14T17:45:51.528Z,98.90
2019-05-14T17:48:20.823Z,98.20
2019-05-14T17:50:50.059Z,98.90
2019-05-14T17:53:19.372Z,99.90
2019-05-14T17:56:08.424Z,99.60
2019-05-14T17:58:38.572Z,99.40
2019-05-14T18:01:09.117Z,99.60
2019-05-14T18:03:40.105Z,99.90
2019-05-14T18:06:09.497Z,99.90
2019-05-14T18:08:39.019Z,99.30
2019-05-14T18:11:08.936Z,98.90
2019-05-14T18:13:39.275Z,99.80
2019-05-14T18:16:09.246Z,99.90
2019-05-14T18:18:39.900Z,99.90
2019-05-14T18:21:09.535Z,99.90
2019-05-14T18:23:41.980Z,99.90
2019-05-14T18:26:09.664Z,99.90
2019-05-14T18:28:38.966Z,99.90
2019-05-14T18:31:09.523Z,99.90
2019-05-14T18:33:39.894Z,99.90
2019-05-14T18:36:09.260Z,99.90
2019-05-14T18:38:38.940Z,99.90
2019-05-14T18:41:08.649Z,99.90
2019-05-14T18:43:38.410Z,99.90
2019-05-14T18:46:08.610Z,99.90
2019-05-14T18:48:37.901Z,99.90
2019-05-14T18:51:09.011Z,99.90
2019-05-14T18:53:38.393Z,99.90
2019-05-14T18:56:19.392Z,99.90
2019-05-14T18:58:39.513Z,99.90
2019-05-14T19:01:09.016Z,99.90
2019-05-14T19:03:40.002Z,99.90
2019-05-14T19:06:09.407Z,99.90
2019-05-14T19:33:20.560Z,99.90
2019-05-14T19:35:48.904Z,99.90
2019-05-14T19:38:18.883Z,99.90
2019-05-14T19:40:48.571Z,99.90
2019-05-14T19:43:19.089Z,99.90
2019-05-14T19:45:48.745Z,99.90
2019-05-14T19:48:19.007Z,99.90
2019-05-14T19:50:49.086Z,99.90
2019-05-14T19:53:18.365Z,99.90
2019-05-14T19:55:48.565Z,99.90
2019-05-14T19:58:20.010Z,99.90
2019-05-14T20:00:49.118Z,99.90
2019-05-14T20:03:19.031Z,99.90
2019-05-14T20:05:48.487Z,99.90
2019-05-14T20:08:19.040Z,99.90
2019-05-14T20:10:48.933Z,99.90
2019-05-14T20:13:19.333Z,99.90
2019-05-14T20:15:49.060Z,99.90
2019-05-14T20:18:17.882Z,99.90
2019-05-14T20:20:49.083Z,99.90
2019-05-14T20:23:18.502Z,99.90
2019-05-14T20:25:49.244Z,99.90
2019-05-14T20:28:18.953Z,99.90
2019-05-14T20:30:49.299Z,99.90
2019-05-14T20:33:19.106Z,99.90
2019-05-14T20:35:49.611Z,99.90
2019-05-14T20:38:18.792Z,99.90
2019-05-14T20:40:48.647Z,99.90
2019-05-14T20:43:18.637Z,99.90
2019-05-14T20:45:48.945Z,99.90
2019-05-14T20:48:18.788Z,99.90
2019-05-14T20:50:48.549Z,99.90
2019-05-14T20:53:18.562Z,99.90
2019-05-14T20:55:50.269Z,99.90
2019-05-14T20:58:20.110Z,99.90
2019-05-14T21:00:49.450Z,99.90
2019-05-14T21:03:18.839Z,99.90
2019-05-14T21:05:49.153Z,99.90
2019-05-14T21:08:18.846Z,99.90
2019-05-14T21:10:49.464Z,99.90
2019-05-14T21:13:19.044Z,99.90
2019-05-14T21:15:48.365Z,99.90
2019-05-14T21:18:18.982Z,99.90
2019-05-14T21:20:48.799Z,99.90
2019-05-14T21:23:18.397Z,99.90
2019-05-14T21:25:48.330Z,99.90
2019-05-14T21:28:18.108Z,99.90
2019-05-14T21:30:48.597Z,99.90
2019-05-14T21:33:17.680Z,99.90
2019-05-14T21:35:48.468Z,99.90
2019-05-14T21:38:19.117Z,99.90
2019-05-14T21:40:49.950Z,99.90
2019-05-14T21:43:18.859Z,99.90
2019-05-14T21:45:48.977Z,99.90
2019-05-14T21:48:19.907Z,99.90
2019-05-14T21:50:49.044Z,99.90
2019-05-14T21:53:19.061Z,99.90
2019-05-14T21:55:49.035Z,99.90
2019-05-14T21:58:19.479Z,99.90
2019-05-14T22:00:53.036Z,99.90
2019-05-14T22:03:22.189Z,99.90
2019-05-14T22:05:51.809Z,99.90
2019-05-14T22:08:20.891Z,99.90
2019-05-14T22:10:50.337Z,99.90
2019-05-14T22:13:19.299Z,99.90
2019-05-14T22:15:49.413Z,99.90
2019-05-14T22:18:20.793Z,99.90
2019-05-14T22:20:49.677Z,99.90
2019-05-14T22:23:21.225Z,99.90
2019-05-14T22:25:49.948Z,99.90
2019-05-14T22:28:19.086Z,99.90
2019-05-14T22:30:48.447Z,99.90
2019-05-14T22:33:19.069Z,99.90
2019-05-14T22:35:48.623Z,99.90
2019-05-14T22:38:19.998Z,99.90
2019-05-14T22:40:55.091Z,99.90
2019-05-14T22:43:24.260Z,99.90
2019-05-14T22:45:53.692Z,99.90
2019-05-14T22:48:22.751Z,99.90
2019-05-14T22:50:51.716Z,99.90
2019-05-14T22:53:21.445Z,99.90
2019-05-14T22:55:50.535Z,99.90
2019-05-14T22:58:25.485Z,99.90
2019-05-14T23:01:06.999Z,99.90
2019-05-14T23:03:21.503Z,99.90
2019-05-14T23:05:51.843Z,99.90
2019-05-14T23:08:20.645Z,99.90
2019-05-14T23:10:49.821Z,99.90
2019-05-14T23:13:18.717Z,99.90
2019-05-14T23:15:48.228Z,99.90
2019-05-14T23:18:18.118Z,99.90
2019-05-14T23:20:49.211Z,99.90
2019-05-14T23:23:18.614Z,99.90
2019-05-14T23:25:47.775Z,99.90
2019-05-14T23:28:19.191Z,99.90
2019-05-14T23:30:48.205Z,99.90
2019-05-14T23:33:19.096Z,99.90
2019-05-14T23:35:48.456Z,99.90
2019-05-14T23:38:19.059Z,99.90
2019-05-14T23:40:49.330Z,99.90
2019-05-14T23:43:18.715Z,99.90
2019-05-14T23:45:48.374Z,99.90
2019-05-14T23:48:18.849Z,99.90
2019-05-14T23:50:48.847Z,99.90
2019-05-14T23:53:18.686Z,99.90
2019-05-14T23:55:48.344Z,99.90
2019-05-14T23:58:20.562Z,99.90
